Time;durP1;ratioP1;P1;durP2;ratioP2;P2;SDS_P1;SDS_P2;PMS_P1;PMS_P2;Temp;Humidity;BMP_temperature;BMP_pressure;BME280_temperature;BME280_humidity;BME280_pressure;Samples;Min_cycle;Max_cycle;Signal;HPM_P1;HPM_P2
2024/04/01 00:00:04;;;;;;;13.27;4.38;;;;;;;15.08;93.22;100491.44;5031118;28;20411;-76
2024/04/01 00:02:29;;;;;;;19.67;4.60;;;;;;;15.14;94.01;100510.66;5030760;28;20017;-76
2024/04/01 00:04:55;;;;;;;22.83;4.65;;;;;;;15.27;93.70;100506.53;5032189;28;20462;-76
2024/04/01 00:07:20;;;;;;;22.60;5.20;;;;;;;15.30;93.41;100498.81;5030892;28;20029;-76
2024/04/01 00:09:46;;;;;;;19.35;5.05;;;;;;;15.19;94.01;100506.41;5031460;28;20484;-77
2024/04/01 00:12:12;;;;;;;16.92;4.55;;;;;;;15.08;94.17;100507.94;5031993;28;20028;-75
2024/04/01 00:14:38;;;;;;;13.20;4.65;;;;;;;14.84;95.14;100511.81;5031755;28;20034;-75
2024/04/01 00:17:04;;;;;;;17.77;4.78;;;;;;;14.71;94.81;100505.47;5031258;28;20715;-75
2024/04/01 00:19:29;;;;;;;16.40;4.63;;;;;;;14.70;94.08;100497.63;5031653;28;20030;-75
2024/04/01 00:21:55;;;;;;;17.45;4.90;;;;;;;14.65;93.72;100491.47;5031342;28;20498;-76
2024/04/01 00:24:20;;;;;;;17.13;3.90;;;;;;;14.66;93.51;100482.84;5031327;28;20049;-75
2024/04/01 00:26:46;;;;;;;17.23;4.63;;;;;;;14.65;93.00;100483.69;5031479;28;20076;-75
2024/04/01 00:29:11;;;;;;;16.77;4.95;;;;;;;14.63;92.72;100460.25;5031137;28;20768;-75
2024/04/01 00:31:36;;;;;;;18.60;5.25;;;;;;;14.42;93.29;100452.88;5031319;28;20033;-75
2024/04/01 00:34:02;;;;;;;19.90;5.25;;;;;;;14.67;93.24;100492.41;5032029;28;20032;-75
2024/04/01 00:36:27;;;;;;;15.25;4.57;;;;;;;14.62;93.38;100489.66;5031518;28;20107;-75
2024/04/01 00:38:56;;;;;;;16.70;4.80;;;;;;;14.53;94.03;100499.88;5031294;28;20033;-75
2024/04/01 00:41:23;;;;;;;15.98;5.20;;;;;;;14.56;94.13;100481.75;5031492;28;20033;-75
2024/04/01 00:43:48;;;;;;;22.67;5.55;;;;;;;14.63;93.70;100503.50;5031403;28;20033;-75
2024/04/01 00:46:16;;;;;;;18.77;4.65;;;;;;;14.62;93.34;100500.06;5031096;28;20402;-75
2024/04/01 00:48:41;;;;;;;15.30;4.88;;;;;;;14.42;93.52;100463.28;5031439;28;20038;-76
2024/04/01 00:51:07;;;;;;;18.30;4.80;;;;;;;14.56;93.14;100476.53;5032097;28;20036;-75
2024/04/01 00:53:33;;;;;;;13.60;4.80;;;;;;;14.64;92.36;100495.78;5030871;28;20031;-75
2024/04/01 00:55:59;;;;;;;14.23;4.35;;;;;;;14.67;91.93;100490.66;5028420;28;20052;-75
2024/04/01 00:58:25;;;;;;;19.48;5.18;;;;;;;14.65;92.43;100494.06;5030945;28;20072;-75
2024/04/01 01:00:51;;;;;;;15.38;4.93;;;;;;;14.43;93.34;100475.41;5031037;28;20057;-75
2024/04/01 01:03:17;;;;;;;12.95;4.60;;;;;;;14.53;93.88;100495.53;5030728;28;20098;-75
2024/04/01 01:05:44;;;;;;;18.23;4.50;;;;;;;14.29;95.27;100482.88;5031353;28;20059;-75
2024/04/01 01:08:10;;;;;;;18.65;5.22;;;;;;;13.95;96.59;100458.78;5030913;28;20040;-75
2024/04/01 01:10:36;;;;;;;14.30;4.97;;;;;;;13.55;98.56;100469.06;5031183;28;20225;-75
2024/04/01 01:13:01;;;;;;;14.57;5.32;;;;;;;13.50;99.88;100499.22;5030741;28;20491;-75
2024/04/01 01:15:28;;;;;;;19.15;4.55;;;;;;;13.15;100.00;100469.75;5061159;28;20120;-74
2024/04/01 01:17:55;;;;;;;14.98;5.25;;;;;;;13.37;99.52;100505.81;5030680;28;20034;-74
2024/04/01 01:20:21;;;;;;;15.23;4.78;;;;;;;13.42;99.65;100512.00;5030553;28;20041;-76
2024/04/01 01:22:47;;;;;;;14.52;4.35;;;;;;;13.31;99.38;100502.13;5030921;28;20407;-75
2024/04/01 01:25:12;;;;;;;15.90;4.88;;;;;;;13.51;99.07;100513.09;5031026;28;20029;-75
2024/04/01 01:27:40;;;;;;;12.48;4.75;;;;;;;13.63;97.81;100512.50;5030740;28;20464;-75
2024/04/01 01:30:17;;;;;;;13.50;4.25;;;;;;;13.47;96.19;100459.34;5030195;28;20037;-76
2024/04/01 01:32:49;;;;;;;14.73;4.65;;;;;;;13.64;96.70;100511.66;5029936;28;20040;-75
2024/04/01 01:35:17;;;;;;;18.20;4.70;;;;;;;13.60;97.45;100505.53;5022733;28;20032;-75
2024/04/01 01:37:43;;;;;;;15.85;4.53;;;;;;;13.70;97.89;100506.63;5030454;28;20036;-74
2024/04/01 01:40:09;;;;;;;13.57;4.78;;;;;;;13.67;98.60;100504.84;5030401;28;20083;-75
2024/04/01 01:42:37;;;;;;;9.25;4.00;;;;;;;13.64;99.17;100489.19;5030210;28;20531;-75
2024/04/01 01:45:04;;;;;;;16.00;4.93;;;;;;;13.61;98.71;100458.00;5029959;28;20028;-76
2024/04/01 01:47:34;;;;;;;16.88;4.95;;;;;;;13.92;98.14;100502.84;5030561;28;20025;-76
2024/04/01 01:50:00;;;;;;;13.38;4.20;;;;;;;13.91;97.89;100498.50;5030038;28;20041;-74
2024/04/01 01:52:26;;;;;;;15.18;4.47;;;;;;;13.51;98.40;100458.63;5030334;28;20116;-76
2024/04/01 01:54:53;;;;;;;12.35;4.78;;;;;;;13.63;99.69;100484.81;5029427;28;20033;-75
2024/04/01 01:57:18;;;;;;;17.55;5.32;;;;;;;13.74;99.40;100498.97;5030437;28;20120;-75
2024/04/01 01:59:44;;;;;;;16.65;4.95;;;;;;;13.72;98.95;100492.84;5029664;28;20109;-75
2024/04/01 02:02:11;;;;;;;20.45;5.97;;;;;;;13.51;99.42;100469.84;5030039;28;20068;-75
2024/04/01 02:04:36;;;;;;;18.42;4.80;;;;;;;13.56;99.69;100496.78;5029859;28;20038;-75
2024/04/01 02:07:04;;;;;;;14.32;4.93;;;;;;;13.34;100.00;100497.03;5029662;28;20033;-75
2024/04/01 02:09:30;;;;;;;12.60;4.53;;;;;;;13.20;100.00;100486.31;5028235;28;20037;-74
2024/04/01 02:11:56;;;;;;;25.23;4.40;;;;;;;13.20;100.00;100462.97;5029369;28;20070;-74
2024/04/01 02:14:21;;;;;;;15.95;5.18;;;;;;;13.41;100.00;100471.34;5029634;28;20018;-75
2024/04/01 02:16:47;;;;;;;15.57;5.30;;;;;;;13.60;100.00;100508.09;5030669;28;20032;-75
2024/04/01 02:19:13;;;;;;;18.83;4.78;;;;;;;13.50;100.00;100511.31;5029696;28;20427;-74
2024/04/01 02:21:39;;;;;;;17.17;4.55;;;;;;;13.48;100.00;100485.31;5016925;28;20424;-75
2024/04/01 02:24:05;;;;;;;17.50;6.00;;;;;;;13.55;100.00;100492.44;5028972;28;20053;-75
2024/04/01 02:26:30;;;;;;;12.85;4.50;;;;;;;13.57;100.00;100500.22;5029229;28;20029;-75
2024/04/01 02:28:56;;;;;;;14.88;4.95;;;;;;;13.68;100.00;100505.69;5029765;28;20017;-75
2024/04/01 02:31:21;;;;;;;17.92;4.63;;;;;;;13.71;100.00;100500.59;5029621;28;20034;-75
2024/04/01 02:33:47;;;;;;;17.85;4.50;;;;;;;13.68;100.00;100484.94;5060868;28;20037;-75
2024/04/01 02:36:13;;;;;;;16.85;4.90;;;;;;;13.74;100.00;100498.97;5029708;28;20061;-75
2024/04/01 02:38:38;;;;;;;13.55;4.40;;;;;;;13.76;100.00;100491.22;5029571;28;20083;-75
2024/04/01 02:41:04;;;;;;;9.43;4.03;;;;;;;13.62;100.00;100495.16;5029497;28;20034;-75
2024/04/01 02:43:29;;;;;;;19.30;4.18;;;;;;;13.45;100.00;100485.25;5029237;28;20040;-75
2024/04/01 02:45:55;;;;;;;16.98;4.55;;;;;;;13.37;100.00;100460.81;5032309;28;20037;-75
2024/04/01 02:48:20;;;;;;;15.30;4.47;;;;;;;13.71;100.00;100500.59;5033428;28;20022;-75
2024/04/01 02:50:47;;;;;;;14.65;4.82;;;;;;;13.74;98.77;100503.25;5033231;28;20480;-74
2024/04/01 02:53:13;;;;;;;14.35;4.95;;;;;;;13.77;97.84;100510.25;5029384;28;20064;-75
2024/04/01 02:55:38;;;;;;;11.90;4.15;;;;;;;13.81;97.16;100499.97;5033029;28;20566;-75
2024/04/01 02:58:04;;;;;;;16.13;4.60;;;;;;;13.68;97.22;100504.00;5033916;28;20021;-75
2024/04/01 03:00:31;;;;;;;13.68;4.72;;;;;;;13.68;96.83;100503.09;5033157;28;20522;-75
2024/04/01 03:02:56;;;;;;;16.27;4.22;;;;;;;13.50;96.61;100498.34;5032885;28;20025;-75
2024/04/01 03:05:22;;;;;;;11.55;4.63;;;;;;;13.43;97.57;100503.38;5033393;28;20075;-75
2024/04/01 03:07:50;;;;;;;16.33;5.13;;;;;;;13.19;98.08;100464.69;5032497;28;20415;-75
2024/04/01 03:10:15;;;;;;;16.45;4.97;;;;;;;13.17;98.42;100470.66;5033301;28;20029;-75
2024/04/01 03:12:42;;;;;;;18.35;5.07;;;;;;;13.31;99.57;100507.31;5027338;28;20021;-76
2024/04/01 03:15:08;;;;;;;12.48;5.00;;;;;;;13.39;99.23;100513.63;5032971;28;20120;-75
2024/04/01 03:17:34;;;;;;;14.15;4.75;;;;;;;13.48;98.49;100510.38;5033340;28;20040;-75
2024/04/01 03:20:00;;;;;;;13.27;5.20;;;;;;;13.51;97.49;100515.69;5032748;28;20025;-75
2024/04/01 03:22:26;;;;;;;15.30;5.07;;;;;;;13.24;98.37;100511.47;5032616;28;20025;-75
2024/04/01 03:24:52;;;;;;;17.17;4.30;;;;;;;12.99;99.97;100509.94;5032705;28;20050;-75
2024/04/01 03:27:18;;;;;;;14.88;4.72;;;;;;;12.59;100.00;100488.97;5032484;28;20036;-75
2024/04/01 03:29:44;;;;;;;13.15;4.20;;;;;;;12.59;100.00;100509.69;5032569;28;20032;-75
2024/04/01 03:32:10;;;;;;;18.52;5.05;;;;;;;12.52;100.00;100507.72;5032718;28;20479;-75
2024/04/01 03:34:36;;;;;;;17.63;5.25;;;;;;;12.24;100.00;100461.19;5032753;28;20369;-75
2024/04/01 03:37:02;;;;;;;17.20;4.85;;;;;;;12.58;100.00;100510.50;5032393;28;20029;-75
2024/04/01 03:39:30;;;;;;;15.80;4.57;;;;;;;12.51;100.00;100498.19;5032335;28;20033;-75
2024/04/01 03:41:56;;;;;;;19.73;5.28;;;;;;;12.50;100.00;100504.19;5031988;28;20487;-75
2024/04/01 03:44:22;;;;;;;19.33;4.88;;;;;;;12.13;100.00;100483.28;5032675;28;20033;-75
2024/04/01 03:46:47;;;;;;;19.65;5.50;;;;;;;12.28;100.00;100509.63;5032675;28;20112;-75
2024/04/01 03:49:13;;;;;;;19.30;5.65;;;;;;;12.41;100.00;100526.41;5032426;28;20087;-75
2024/04/01 03:51:38;;;;;;;16.45;5.28;;;;;;;12.25;100.00;100511.22;5032091;28;20041;-74
2024/04/01 03:54:04;;;;;;;13.73;5.20;;;;;;;12.40;100.00;100532.44;5032211;28;20025;-75
2024/04/01 03:56:29;;;;;;;22.45;5.22;;;;;;;11.95;100.00;100480.94;5031974;28;20021;-75
2024/04/01 03:58:56;;;;;;;24.20;5.90;;;;;;;12.16;100.00;100539.44;5033007;28;20035;-75
2024/04/01 04:01:22;;;;;;;12.15;5.65;;;;;;;12.17;100.00;100536.00;5031649;28;20037;-75
2024/04/01 04:03:47;;;;;;;18.17;6.53;;;;;;;11.95;100.00;100538.75;5031675;28;20091;-74
2024/04/01 04:06:13;;;;;;;20.75;6.05;;;;;;;11.92;100.00;100540.38;5032547;28;20033;-75
2024/04/01 04:08:38;;;;;;;16.77;4.95;;;;;;;11.91;100.00;100536.00;5036174;28;20029;-75
2024/04/01 04:11:07;;;;;;;17.95;5.65;;;;;;;11.82;100.00;100532.31;5031996;28;20496;-74
2024/04/01 04:13:36;;;;;;;18.42;5.78;;;;;;;11.89;100.00;100543.72;5031767;28;20045;-75
2024/04/01 04:16:02;;;;;;;26.08;5.60;;;;;;;11.72;100.00;100532.81;5031605;28;20029;-74
2024/04/01 04:18:27;;;;;;;18.50;6.57;;;;;;;11.77;100.00;100549.38;5031935;28;20040;-74
2024/04/01 04:20:55;;;;;;;20.20;6.22;;;;;;;11.72;100.00;100544.88;5031450;28;20408;-75
2024/04/01 04:23:24;;;;;;;20.10;5.75;;;;;;;11.74;100.00;100541.53;5031390;28;20045;-74
2024/04/01 04:25:51;;;;;;;17.27;5.88;;;;;;;11.66;100.00;100535.19;5031375;28;20041;-75
2024/04/01 04:28:16;;;;;;;17.70;5.18;;;;;;;11.76;100.00;100549.31;5031408;28;20508;-75
2024/04/01 04:30:42;;;;;;;22.42;5.63;;;;;;;11.68;100.00;100537.88;5032328;28;20036;-75
2024/04/01 04:33:08;;;;;;;21.67;6.10;;;;;;;11.76;100.00;100539.88;5031645;28;20041;-74
2024/04/01 04:35:34;;;;;;;21.05;5.75;;;;;;;11.81;100.00;100537.41;5031471;28;20033;-74
2024/04/01 04:38:00;;;;;;;19.58;6.05;;;;;;;12.01;100.00;100552.75;5031630;28;20108;-75
2024/04/01 04:40:27;;;;;;;16.00;6.40;;;;;;;12.13;100.00;100546.25;5031385;28;20104;-75
2024/04/01 04:42:55;;;;;;;21.55;6.82;;;;;;;12.29;100.00;100549.34;5029189;28;20484;-75
2024/04/01 04:45:23;;;;;;;20.10;6.82;;;;;;;12.25;100.00;100556.13;5029436;28;20044;-75
2024/04/01 04:47:49;;;;;;;18.30;7.30;;;;;;;12.26;100.00;100563.06;5027552;28;20122;-75
2024/04/01 04:50:15;;;;;;;19.83;6.03;;;;;;;12.14;100.00;100558.38;5031152;28;20092;-74
2024/04/01 04:52:40;;;;;;;24.45;6.50;;;;;;;12.06;100.00;100546.00;5030148;28;20037;-75
2024/04/01 04:55:06;;;;;;;17.90;6.40;;;;;;;12.16;100.00;100553.22;5031254;28;20052;-75
2024/04/01 04:57:32;;;;;;;17.50;6.40;;;;;;;12.15;100.00;100569.63;5031189;28;20025;-75
2024/04/01 04:59:57;;;;;;;20.15;7.57;;;;;;;12.01;100.00;100563.97;5031541;28;20036;-75
2024/04/01 05:02:22;;;;;;;23.13;6.82;;;;;;;12.00;100.00;100558.75;5031065;28;20025;-74
2024/04/01 05:04:48;;;;;;;21.60;8.40;;;;;;;11.97;100.00;100555.25;5031461;28;20467;-75
2024/04/01 05:07:14;;;;;;;17.85;7.13;;;;;;;12.17;100.00;100573.13;5029943;28;20086;-75
2024/04/01 05:09:40;;;;;;;24.90;6.95;;;;;;;12.06;100.00;100539.16;5030868;28;20033;-75
2024/04/01 05:12:06;;;;;;;21.73;6.45;;;;;;;12.34;100.00;100571.06;5031281;28;20037;-75
2024/04/01 05:14:31;;;;;;;24.02;6.60;;;;;;;12.30;100.00;100570.09;5030775;28;20032;-75
2024/04/01 05:16:57;;;;;;;16.67;6.30;;;;;;;12.20;100.00;100538.69;5031335;28;20033;-75
2024/04/01 05:19:22;;;;;;;25.98;7.88;;;;;;;12.55;100.00;100576.03;5030509;28;20025;-74
2024/04/01 05:21:49;;;;;;;19.65;7.75;;;;;;;12.45;100.00;100530.84;5030553;28;20045;-74
2024/04/01 05:24:17;;;;;;;29.50;8.70;;;;;;;12.93;100.00;100578.91;5030049;28;20444;-74
2024/04/01 05:26:43;;;;;;;32.53;8.70;;;;;;;13.07;100.00;100587.06;5030490;28;20056;-75
2024/04/01 05:29:09;;;;;;;25.90;8.20;;;;;;;13.19;100.00;100585.66;5030465;28;20484;-74
2024/04/01 05:31:35;;;;;;;35.88;9.18;;;;;;;13.35;100.00;100580.06;5031087;28;20105;-74
2024/04/01 05:34:02;;;;;;;21.10;7.72;;;;;;;13.12;100.00;100527.56;5029969;28;20041;-74
2024/04/01 05:36:30;;;;;;;26.73;8.15;;;;;;;13.39;100.00;100578.44;5030144;28;20030;-75
2024/04/01 05:38:55;;;;;;;23.13;8.00;;;;;;;13.41;100.00;100571.59;5030770;28;20037;-74
2024/04/01 05:41:21;;;;;;;28.30;7.82;;;;;;;13.42;100.00;100578.53;5030250;28;20031;-75
2024/04/01 05:43:47;;;;;;;24.08;8.55;;;;;;;13.27;100.00;100542.66;5030789;28;20049;-74
2024/04/01 05:46:13;;;;;;;19.25;6.82;;;;;;;13.46;100.00;100574.28;5030965;28;20103;-75
2024/04/01 05:48:38;;;;;;;23.15;7.70;;;;;;;13.29;100.00;100541.00;5030765;28;20052;-75
2024/04/01 05:51:04;;;;;;;23.98;7.68;;;;;;;13.36;100.00;100548.09;5030660;28;20021;-74
2024/04/01 05:53:30;;;;;;;26.92;7.25;;;;;;;13.61;100.00;100576.41;5028311;28;20061;-74
2024/04/01 05:55:55;;;;;;;22.80;7.90;;;;;;;13.54;100.00;100588.38;5030943;28;20392;-74
2024/04/01 05:58:21;;;;;;;21.02;8.30;;;;;;;13.39;100.00;100587.09;5030594;28;20025;-75
2024/04/01 06:00:47;;;;;;;21.77;7.57;;;;;;;13.23;100.00;100567.66;5030510;28;20041;-74
2024/04/01 06:03:13;;;;;;;19.25;7.72;;;;;;;13.27;100.00;100579.84;5030186;28;20029;-74
2024/04/01 06:05:38;;;;;;;23.90;7.00;;;;;;;13.27;100.00;100576.34;5030374;28;20036;-74
2024/04/01 06:08:04;;;;;;;23.58;8.05;;;;;;;13.37;100.00;100583.59;5030493;28;20033;-74
2024/04/01 06:10:30;;;;;;;30.58;7.57;;;;;;;13.33;100.00;100566.16;5030190;28;20148;-75
2024/04/01 06:12:55;;;;;;;26.02;7.80;;;;;;;13.52;100.00;100574.47;5030663;28;20037;-74
2024/04/01 06:15:21;;;;;;;23.50;7.20;;;;;;;13.53;100.00;100565.84;5028457;28;20044;-75
2024/04/01 06:17:48;;;;;;;19.42;8.30;;;;;;;13.60;100.00;100567.78;5030039;28;20495;-74
2024/04/01 06:20:14;;;;;;;25.15;7.30;;;;;;;13.81;100.00;100588.22;5030239;28;20033;-75
2024/04/01 06:22:39;;;;;;;22.40;7.75;;;;;;;13.70;100.00;100551.59;5030117;28;20415;-76
2024/04/01 06:25:06;;;;;;;26.27;7.28;;;;;;;13.77;100.00;100588.09;5060915;28;20041;-75
2024/04/01 06:27:32;;;;;;;20.00;7.63;;;;;;;13.87;100.00;100582.31;5030145;28;20103;-74
2024/04/01 06:29:57;;;;;;;19.10;7.32;;;;;;;14.05;100.00;100579.28;5030130;28;20471;-75
2024/04/01 06:32:23;;;;;;;27.95;7.40;;;;;;;13.97;100.00;100532.38;5030235;28;20468;-75
2024/04/01 06:34:51;;;;;;;30.58;8.13;;;;;;;14.40;100.00;100580.13;5028653;28;20022;-75
2024/04/01 06:37:16;;;;;;;24.55;7.85;;;;;;;14.56;100.00;100575.28;5029028;28;20439;-75
2024/04/01 06:39:42;;;;;;;24.60;6.78;;;;;;;14.42;100.00;100535.09;5028177;28;20026;-75
2024/04/01 06:42:07;;;;;;;22.88;7.15;;;;;;;14.47;100.00;100531.78;5029666;28;20025;-76
2024/04/01 06:44:33;;;;;;;21.17;7.13;;;;;;;14.45;100.00;100538.66;5030050;28;20091;-75
2024/04/01 06:46:58;;;;;;;21.05;6.72;;;;;;;14.63;100.00;100568.47;5030190;28;20030;-75
2024/04/01 06:49:24;;;;;;;18.17;7.05;;;;;;;14.46;100.00;100542.16;5030214;28;20411;-75
2024/04/01 06:51:49;;;;;;;23.40;6.32;;;;;;;14.47;100.00;100573.34;5028254;28;20040;-75
2024/04/01 06:54:15;;;;;;;18.63;6.40;;;;;;;14.37;100.00;100542.81;5007301;28;20487;-75
2024/04/01 06:56:40;;;;;;;19.38;6.93;;;;;;;14.78;100.00;100565.38;5007758;28;20038;-75
2024/04/01 06:59:06;;;;;;;21.45;7.35;;;;;;;14.86;100.00;100550.81;5007374;28;20535;-76
2024/04/01 07:01:31;;;;;;;22.85;7.90;;;;;;;15.20;100.00;100580.97;5007493;28;20037;-75
2024/04/01 07:03:56;;;;;;;21.77;7.38;;;;;;;15.43;100.00;100582.28;5007504;28;20065;-75
2024/04/01 07:06:22;;;;;;;37.72;8.80;;;;;;;15.72;100.00;100580.19;5007498;28;20099;-76
2024/04/01 07:08:47;;;;;;;21.38;7.07;;;;;;;15.79;100.00;100578.59;5007503;28;20417;-75
2024/04/01 07:11:13;;;;;;;23.98;7.22;;;;;;;15.78;100.00;100574.22;5007485;28;20120;-75
2024/04/01 07:13:39;;;;;;;22.23;7.80;;;;;;;16.05;100.00;100567.75;5007192;28;20107;-75
2024/04/01 07:16:04;;;;;;;20.92;7.15;;;;;;;16.02;100.00;100537.31;5007381;28;20137;-75
2024/04/01 07:18:31;;;;;;;18.63;7.47;;;;;;;16.39;100.00;100565.69;5007515;28;20041;-74
2024/04/01 07:20:56;;;;;;;21.55;7.47;;;;;;;16.52;100.00;100566.72;5007318;28;20581;-74
2024/04/01 07:23:22;;;;;;;17.30;6.32;;;;;;;16.58;100.00;100569.41;5005364;28;20170;-75
2024/04/01 07:25:47;;;;;;;25.35;7.65;;;;;;;16.45;100.00;100519.72;5023549;28;20041;-75
2024/04/01 07:28:13;;;;;;;26.80;7.30;;;;;;;16.85;100.00;100566.31;5029723;28;20134;-75
2024/04/01 07:30:39;;;;;;;18.65;6.90;;;;;;;16.96;100.00;100559.50;5030260;28;20190;-75
2024/04/01 07:33:04;;;;;;;23.75;6.70;;;;;;;17.19;100.00;100568.47;5033216;28;20527;-75
2024/04/01 07:35:30;;;;;;;22.48;6.88;;;;;;;17.29;100.00;100573.78;5033286;28;20063;-76
2024/04/01 07:37:56;;;;;;;18.92;6.18;;;;;;;17.36;99.56;100556.47;5033484;28;20025;-75
2024/04/01 07:40:21;;;;;;;22.48;6.05;;;;;;;17.65;96.25;100579.38;5031824;28;20029;-75
2024/04/01 07:42:47;;;;;;;18.20;5.90;;;;;;;17.71;94.02;100584.66;5033209;28;20025;-75
2024/04/01 07:45:12;;;;;;;18.50;5.97;;;;;;;17.88;92.19;100565.66;5032900;28;20450;-75
2024/04/01 07:47:38;;;;;;;23.48;5.82;;;;;;;17.88;90.09;100532.59;5032640;28;20460;-74
2024/04/01 07:50:07;;;;;;;21.42;5.82;;;;;;;18.17;90.65;100560.72;5033015;28;20040;-76
2024/04/01 07:52:33;;;;;;;20.63;6.10;;;;;;;18.32;89.73;100556.44;5032869;28;20104;-75
2024/04/01 07:54:59;;;;;;;16.45;5.97;;;;;;;18.48;83.88;100555.69;5033211;28;20124;-75
2024/04/01 07:57:30;;;;;;;18.38;5.53;;;;;;;18.61;83.79;100546.16;5032977;28;20109;-75
2024/04/01 07:59:59;;;;;;;18.08;5.65;;;;;;;18.85;86.04;100560.22;5032706;28;20530;-77
2024/04/01 08:02:25;;;;;;;17.33;5.18;;;;;;;19.00;85.54;100559.44;5032672;28;20404;-77
2024/04/01 08:04:51;;;;;;;18.05;4.55;;;;;;;19.14;84.36;100562.97;5032653;28;20044;-74
2024/04/01 08:07:17;;;;;;;21.38;5.70;;;;;;;19.20;84.91;100538.56;5033074;28;20061;-77
2024/04/01 08:09:43;;;;;;;26.88;6.13;;;;;;;19.44;84.44;100561.31;5032823;28;20547;-76
2024/04/01 08:12:08;;;;;;;16.77;5.00;;;;;;;19.52;83.26;100537.75;5032117;28;20048;-77
2024/04/01 08:14:35;;;;;;;18.67;5.07;;;;;;;19.34;80.93;100494.97;5032608;28;20127;-77
2024/04/01 08:17:00;;;;;;;14.93;5.00;;;;;;;19.97;75.11;100554.38;5032392;28;20072;-76
2024/04/01 08:19:28;;;;;;;22.05;4.93;;;;;;;20.15;74.90;100536.88;5064344;28;20084;-76
2024/04/01 08:21:54;;;;;;;18.38;4.93;;;;;;;20.26;73.84;100518.53;5032488;28;20071;-76
2024/04/01 08:24:19;;;;;;;15.30;4.43;;;;;;;20.47;73.16;100528.97;5032204;28;20045;-76
2024/04/01 08:26:45;;;;;;;12.75;3.65;;;;;;;20.56;70.65;100542.91;5032483;28;20025;-75
2024/04/01 08:29:10;;;;;;;16.77;4.60;;;;;;;20.65;67.37;100514.91;5032201;28;20505;-75
2024/04/01 08:31:35;;;;;;;14.27;4.07;;;;;;;20.42;67.56;100472.16;5031923;28;20581;-75
2024/04/01 08:34:02;;;;;;;19.48;4.45;;;;;;;20.75;69.66;100528.00;5032310;28;20044;-76
2024/04/01 08:36:28;;;;;;;14.35;3.80;;;;;;;20.74;64.22;100493.06;5032205;28;20033;-76
2024/04/01 08:38:54;;;;;;;17.02;4.05;;;;;;;20.98;62.48;100506.91;5032308;28;20025;-76
2024/04/01 08:41:38;;;;;;;16.15;3.72;;;;;;;21.28;60.68;100516.38;5032126;28;20602;-76
2024/04/01 08:44:08;;;;;;;17.55;3.92;;;;;;;21.45;55.12;100508.38;5031906;28;20029;-75
2024/04/01 08:46:38;;;;;;;14.23;3.83;;;;;;;21.33;60.20;100471.69;5032205;28;20029;-75
2024/04/01 08:49:06;;;;;;;12.65;3.35;;;;;;;21.54;50.88;100488.19;5032114;28;20056;-75
2024/04/01 08:51:35;;;;;;;13.68;3.58;;;;;;;21.60;49.64;100507.41;5031938;28;20071;-75
2024/04/01 08:54:04;;;;;;;14.27;3.70;;;;;;;21.68;50.11;100499.47;5031612;28;20395;-74
2024/04/01 08:56:31;;;;;;;12.85;3.20;;;;;;;21.75;48.06;100493.28;5031803;28;20030;-75
2024/04/01 08:58:58;;;;;;;25.13;4.13;;;;;;;21.86;49.21;100501.06;5031699;28;20026;-75
2024/04/01 09:01:24;;;;;;;14.95;3.78;;;;;;;22.00;49.32;100492.19;5031628;28;20026;-76
2024/04/01 09:03:50;;;;;;;13.15;3.33;;;;;;;22.10;52.24;100483.31;5031725;28;20033;-74
2024/04/01 09:06:16;;;;;;;11.70;3.30;;;;;;;22.25;50.79;100492.78;5031789;28;20048;-74
2024/04/01 09:08:42;;;;;;;11.45;3.40;;;;;;;22.27;49.18;100481.38;5031302;28;20036;-75
2024/04/01 09:11:08;;;;;;;12.13;3.10;;;;;;;22.39;48.58;100474.25;5045536;28;20529;-75
2024/04/01 09:13:34;;;;;;;15.88;3.50;;;;;;;22.42;50.10;100459.31;5031711;28;20041;-74
2024/04/01 09:16:00;;;;;;;12.88;3.53;;;;;;;22.54;51.13;100460.03;5031165;28;20025;-75
2024/04/01 09:18:29;;;;;;;8.52;2.60;;;;;;;22.71;52.88;100470.34;5028860;28;20081;-74
2024/04/01 09:20:57;;;;;;;14.63;3.70;;;;;;;22.78;50.77;100462.34;5031278;28;20090;-74
2024/04/01 09:23:23;;;;;;;10.98;3.60;;;;;;;22.74;53.26;100429.09;5030927;28;20054;-74
2024/04/01 09:25:48;;;;;;;12.05;3.03;;;;;;;22.97;51.45;100459.47;5029620;28;20017;-74
2024/04/01 09:28:15;;;;;;;11.70;3.05;;;;;;;23.12;51.87;100462.78;5031261;28;20468;-74
2024/04/01 09:30:40;;;;;;;9.48;2.80;;;;;;;23.17;51.23;100456.56;5029770;28;20045;-74
2024/04/01 09:33:07;;;;;;;14.80;3.22;;;;;;;23.16;49.33;100449.56;5031177;28;20029;-75
2024/04/01 09:35:33;;;;;;;15.73;3.72;;;;;;;22.96;50.06;100401.56;5031205;28;20029;-75
2024/04/01 09:37:58;;;;;;;8.75;3.00;;;;;;;23.25;46.77;100441.53;5030830;28;20365;-74
2024/04/01 09:40:24;;;;;;;12.70;3.05;;;;;;;23.52;43.21;100459.53;5031070;28;20028;-74
2024/04/01 09:42:54;;;;;;;10.75;2.67;;;;;;;23.67;41.75;100448.72;5031029;28;20505;-75
2024/04/01 09:45:20;;;;;;;16.95;3.33;;;;;;;23.86;44.26;100448.38;5030859;28;20400;-75
2024/04/01 09:47:48;;;;;;;18.05;4.15;;;;;;;23.98;46.26;100445.53;5031025;28;20052;-74
2024/04/01 09:50:16;;;;;;;14.23;3.50;;;;;;;24.02;46.74;100447.22;5030859;28;20037;-74
2024/04/01 09:52:41;;;;;;;11.38;3.17;;;;;;;24.04;49.66;100441.94;5030891;28;20364;-74
2024/04/01 09:55:24;;;;;;;17.40;3.85;;;;;;;24.11;48.26;100448.81;5030349;28;20040;-75
2024/04/01 09:58:24;;;;;;;14.70;3.90;;;;;;;24.06;51.72;100441.00;5030844;28;20025;-75
2024/04/01 10:01:14;;;;;;;20.98;4.53;;;;;;;24.09;48.54;100433.91;5030666;28;20107;-75
2024/04/01 10:03:56;;;;;;;22.98;4.35;;;;;;;24.26;50.31;100409.84;5030530;28;20104;-74
2024/04/01 10:06:36;;;;;;;16.48;4.35;;;;;;;24.58;49.11;100432.06;5030725;28;20491;-76
2024/04/01 10:09:26;;;;;;;18.33;4.00;;;;;;;24.65;49.52;100428.38;5029092;28;20095;-75
2024/04/01 10:12:34;;;;;;;14.48;4.22;;;;;;;24.73;49.44;100418.53;5021841;28;20056;-77
2024/04/01 10:15:22;;;;;;;15.35;3.85;;;;;;;24.94;47.49;100416.31;5019642;28;20140;-72
2024/04/01 10:18:29;;;;;;;16.05;4.45;;;;;;;25.17;49.08;100405.16;5027439;28;20029;-76
2024/04/01 10:20:54;;;;;;;20.65;4.80;;;;;;;25.27;50.06;100404.06;5007615;28;20037;-74
2024/04/01 10:23:23;;;;;;;15.45;4.20;;;;;;;25.34;49.53;100400.31;5007100;28;20054;-74
2024/04/01 10:26:11;;;;;;;14.73;3.65;;;;;;;25.58;47.70;100400.63;5007478;28;20048;-75
2024/04/01 10:28:56;;;;;;;13.80;4.03;;;;;;;25.72;47.58;100389.72;5007651;28;20599;-76
2024/04/01 10:31:59;;;;;;;19.88;4.55;;;;;;;25.77;47.77;100392.19;5007435;28;20061;-75
2024/04/01 10:34:49;;;;;;;19.77;4.28;;;;;;;25.90;48.51;100390.97;5007714;28;20129;-73
2024/04/01 10:37:30;;;;;;;12.20;3.17;;;;;;;25.95;48.88;100380.25;5007177;28;20046;-75
2024/04/01 10:40:33;;;;;;;19.15;4.28;;;;;;;25.86;49.01;100372.56;5007141;28;20046;-75
2024/04/01 10:42:58;;;;;;;19.63;4.60;;;;;;;26.07;48.73;100373.78;5007311;28;20042;-73
2024/04/01 10:45:42;;;;;;;16.92;4.30;;;;;;;26.15;48.76;100359.41;5007251;28;20040;-74
2024/04/01 10:48:20;;;;;;;16.10;4.32;;;;;;;26.21;49.20;100366.31;5007034;28;20052;-73
2024/04/01 10:51:04;;;;;;;19.88;4.47;;;;;;;26.17;49.45;100362.03;5003317;28;20040;-72
2024/04/01 10:53:57;;;;;;;16.50;4.25;;;;;;;26.38;47.99;100360.50;4967990;28;20042;-74
2024/04/01 10:56:52;;;;;;;21.30;4.65;;;;;;;26.44;47.39;100356.78;5039058;28;20041;-76
2024/04/01 10:59:42;;;;;;;21.98;4.82;;;;;;;26.38;48.38;100349.03;5040321;28;20030;-74
2024/04/01 11:02:49;;;;;;;36.20;5.57;;;;;;;26.36;46.51;100324.41;5032484;28;20392;-74
2024/04/01 11:05:42;;;;;;;19.10;3.97;;;;;;;26.52;46.26;100324.78;5045971;28;20041;-75
2024/04/01 11:08:19;;;;;;;18.35;4.22;;;;;;;26.63;46.94;100325.31;5050296;28;20098;-77
2024/04/01 11:10:58;;;;;;;32.60;4.93;;;;;;;26.68;46.10;100307.50;5050503;28;20055;-75
2024/04/01 11:13:26;;;;;;;18.90;4.55;;;;;;;26.87;45.44;100309.59;5050454;28;20171;-75
2024/04/01 11:15:57;;;;;;;16.30;4.40;;;;;;;26.88;45.55;100290.97;5050401;28;20475;-73
2024/04/01 11:18:37;;;;;;;15.27;4.05;;;;;;;26.91;46.73;100295.31;5050153;28;20412;-73